Time;durP1;ratioP1;P1;durP2;ratioP2;P2;SDS_P1;SDS_P2;PMS_P1;PMS_P2;Temp;Humidity;BMP_temperature;BMP_pressure;BME280_temperature;BME280_humidity;BME280_pressure;Samples;Min_cycle;Max_cycle;Signal;HPM_P1;HPM_P2
2022/06/24 00:01:15;;;;;;;4.07;3.50;;;21.70;1.00;;;;;;6349876;27;20235;-56
2022/06/24 00:04:22;;;;;;;3.90;3.60;;;21.60;1.00;;;;;;6330381;28;20533;-56
2022/06/24 00:07:25;;;;;;;8.67;4.23;;;21.50;1.00;;;;;;6327065;28;20247;-56
2022/06/24 00:10:33;;;;;;;4.00;3.70;;;21.50;1.00;;;;;;6323771;28;20377;-56
2022/06/24 00:13:40;;;;;;;3.60;3.50;;;21.50;1.00;;;;;;6332638;28;20426;-57
2022/06/24 00:16:57;;;;;;;3.80;3.60;;;21.40;1.00;;;;;;6324123;28;20258;-57
2022/06/24 00:20:04;;;;;;;3.70;3.50;;;21.40;1.00;;;;;;6334126;28;20937;-56
2022/06/24 00:23:10;;;;;;;3.83;3.63;;;21.40;1.00;;;;;;6328517;28;20342;-56
2022/06/24 00:26:14;;;;;;;4.20;4.00;;;21.30;1.00;;;;;;6332207;28;20253;-56
2022/06/24 00:29:18;;;;;;;3.53;3.43;;;21.30;1.00;;;;;;6331534;28;20608;-55
2022/06/24 00:32:31;;;;;;;4.20;3.90;;;21.20;1.00;;;;;;6325915;27;20227;-55
2022/06/24 00:35:39;;;;;;;4.70;3.67;;;21.20;1.00;;;;;;6324415;28;20254;-55
2022/06/24 00:38:51;;;;;;;3.80;3.70;;;21.20;1.00;;;;;;6317083;28;20349;-56
2022/06/24 00:41:55;;;;;;;3.63;3.50;;;21.10;1.00;;;;;;6329177;28;20251;-56
2022/06/24 00:45:15;;;;;;;3.43;3.33;;;21.10;1.00;;;;;;6331536;28;20242;-56
2022/06/24 00:48:22;;;;;;;4.13;4.00;;;21.00;1.00;;;;;;6331089;28;20713;-56
2022/06/24 00:51:33;;;;;;;4.47;4.27;;;21.00;1.00;;;;;;6326597;28;20224;-55
2022/06/24 00:54:39;;;;;;;4.43;4.03;;;20.90;1.00;;;;;;6329183;28;20451;-54
2022/06/24 00:57:43;;;;;;;4.20;4.00;;;20.90;1.00;;;;;;6324179;28;20251;-56
2022/06/24 01:00:49;;;;;;;4.20;4.10;;;20.90;1.00;;;;;;6324405;28;20240;-56
2022/06/24 01:03:55;;;;;;;4.50;4.30;;;20.90;1.00;;;;;;6329616;28;20236;-56
2022/06/24 01:06:58;;;;;;;7.13;4.17;;;20.80;1.00;;;;;;6328783;27;20808;-57
2022/06/24 01:10:01;;;;;;;4.27;4.07;;;20.80;1.00;;;;;;6324890;28;20494;-56
2022/06/24 01:13:10;;;;;;;4.83;4.03;;;20.80;1.00;;;;;;6331243;28;20312;-56
2022/06/24 01:16:13;;;;;;;4.13;4.03;;;20.70;1.00;;;;;;6330213;28;20228;-55
2022/06/24 01:19:20;;;;;;;4.23;4.07;;;20.70;1.00;;;;;;6335224;28;20236;-55
2022/06/24 01:22:26;;;;;;;4.20;4.10;;;20.60;1.00;;;;;;6327095;28;20617;-56
2022/06/24 01:25:32;;;;;;;4.30;4.00;;;20.60;1.00;;;;;;6332464;28;20254;-56
2022/06/24 01:28:35;;;;;;;4.70;4.30;;;20.50;1.00;;;;;;6326402;28;20278;-55
2022/06/24 01:31:40;;;;;;;4.43;4.13;;;20.50;1.00;;;;;;6331675;28;20496;-56
2022/06/24 01:34:44;;;;;;;4.50;4.17;;;20.50;1.00;;;;;;6329186;28;20429;-56
2022/06/24 01:37:48;;;;;;;4.97;4.50;;;20.40;1.00;;;;;;6332849;28;20596;-56
2022/06/24 01:40:51;;;;;;;5.20;4.27;;;20.40;1.00;;;;;;6330618;28;20323;-55
2022/06/24 01:43:54;;;;;;;5.33;4.60;;;20.40;1.00;;;;;;6330173;28;20363;-56
2022/06/24 01:47:03;;;;;;;4.90;4.50;;;20.30;1.00;;;;;;6335080;28;20372;-56
2022/06/24 01:50:07;;;;;;;4.73;4.53;;;20.30;1.00;;;;;;6330058;28;20303;-54
2022/06/24 01:53:27;;;;;;;5.00;4.57;;;20.30;1.00;;;;;;6326357;28;20227;-56
2022/06/24 01:56:29;;;;;;;5.13;4.63;;;20.20;1.00;;;;;;6335368;28;20319;-55
2022/06/24 01:59:32;;;;;;;5.00;4.70;;;20.20;1.00;;;;;;6334823;28;20601;-55
2022/06/24 02:02:35;;;;;;;5.17;4.80;;;20.20;1.00;;;;;;6336500;28;20269;-54
2022/06/24 02:05:42;;;;;;;4.40;4.23;;;20.20;1.00;;;;;;6329062;28;20232;-55
2022/06/24 02:08:47;;;;;;;5.07;4.80;;;20.20;1.00;;;;;;6333132;28;20236;-56
2022/06/24 02:15:10;;;;;;;5.07;4.77;;;20.10;1.00;;;;;;6329339;28;20230;-56
2022/06/24 02:18:19;;;;;;;4.30;4.10;;;20.10;1.00;;;;;;6334559;28;20788;-55
2022/06/24 02:21:23;;;;;;;5.00;4.80;;;20.00;1.00;;;;;;6342959;27;20268;-56
2022/06/24 02:24:27;;;;;;;4.83;4.40;;;19.90;1.00;;;;;;6333590;27;20312;-56
2022/06/24 02:27:30;;;;;;;4.77;4.57;;;19.90;1.00;;;;;;6332694;28;20239;-54
2022/06/24 02:30:33;;;;;;;6.67;4.73;;;19.90;1.00;;;;;;6337086;28;20479;-54
2022/06/24 02:33:36;;;;;;;4.97;4.67;;;19.90;1.00;;;;;;6337066;27;20239;-56
2022/06/24 02:36:39;;;;;;;5.00;4.80;;;19.90;1.00;;;;;;6327903;28;20414;-57
2022/06/24 02:39:45;;;;;;;4.87;4.57;;;19.90;1.00;;;;;;6325910;28;20326;-56
2022/06/24 02:42:55;;;;;;;5.20;5.00;;;19.90;1.00;;;;;;6332323;28;20239;-56
2022/06/24 02:46:00;;;;;;;5.30;5.03;;;19.90;1.00;;;;;;6326989;28;20347;-56
2022/06/24 02:49:03;;;;;;;5.53;5.10;;;19.80;1.00;;;;;;6334548;28;20256;-56
2022/06/24 02:52:07;;;;;;;4.77;4.50;;;19.80;1.00;;;;;;6331686;28;20802;-56
2022/06/24 02:55:12;;;;;;;4.90;4.63;;;19.80;1.00;;;;;;6333453;28;20288;-54
2022/06/24 02:58:15;;;;;;;5.10;4.90;;;19.80;1.00;;;;;;6333580;28;20292;-56
2022/06/24 03:01:18;;;;;;;5.20;4.90;;;19.70;1.00;;;;;;6334994;28;20594;-56
2022/06/24 03:04:25;;;;;;;5.20;5.00;;;19.70;1.00;;;;;;6331610;28;20311;-56
2022/06/24 03:07:28;;;;;;;5.17;4.97;;;19.70;1.00;;;;;;6338019;27;20251;-54
2022/06/24 03:10:32;;;;;;;5.10;4.90;;;19.70;1.00;;;;;;6334372;27;20260;-56
2022/06/24 03:13:38;;;;;;;5.70;5.20;;;19.70;1.00;;;;;;6332751;28;20240;-55
2022/06/24 03:16:41;;;;;;;5.50;5.20;;;19.70;1.00;;;;;;6325931;28;20716;-56
2022/06/24 03:19:44;;;;;;;5.97;5.47;;;19.70;1.00;;;;;;6334306;28;20334;-56
2022/06/24 03:22:50;;;;;;;6.07;5.50;;;19.60;1.00;;;;;;6329233;28;20238;-56
2022/06/24 03:25:56;;;;;;;5.70;5.40;;;19.60;1.00;;;;;;6334414;28;20282;-56
2022/06/24 03:28:59;;;;;;;5.57;5.17;;;19.60;1.00;;;;;;6333681;28;20293;-55
2022/06/24 03:32:02;;;;;;;5.50;5.20;;;19.60;1.00;;;;;;6312585;27;20236;-55
2022/06/24 03:35:06;;;;;;;6.43;5.83;;;19.60;1.00;;;;;;6337023;27;20260;-54
2022/06/24 03:38:09;;;;;;;5.30;5.10;;;19.60;1.00;;;;;;6335078;27;23007;-56
2022/06/24 03:41:14;;;;;;;5.57;5.33;;;19.60;1.00;;;;;;6332143;27;20252;-56
2022/06/24 03:44:17;;;;;;;5.73;5.33;;;19.70;1.00;;;;;;6325962;28;20236;-55
2022/06/24 03:47:20;;;;;;;5.40;5.03;;;19.70;1.00;;;;;;6332212;27;20339;-56
2022/06/24 03:50:23;;;;;;;5.73;5.30;;;19.80;1.00;;;;;;6327226;28;20232;-56
2022/06/24 03:53:26;;;;;;;5.67;5.20;;;19.80;1.00;;;;;;6329650;27;20479;-55
2022/06/24 03:56:30;;;;;;;5.13;4.93;;;19.80;1.00;;;;;;6335268;27;20323;-55
2022/06/24 03:59:33;;;;;;;5.40;5.00;;;19.80;1.00;;;;;;6308224;27;20251;-53
2022/06/24 04:02:36;;;;;;;6.30;5.90;;;19.80;1.00;;;;;;6330499;27;20239;-56
2022/06/24 04:05:47;;;;;;;5.03;4.83;;;19.90;1.00;;;;;;6330337;27;20236;-56
2022/06/24 04:08:52;;;;;;;5.50;5.30;;;19.80;1.00;;;;;;6326399;27;20373;-56
2022/06/24 04:11:57;;;;;;;5.77;5.40;;;19.80;1.00;;;;;;6320598;28;20223;-55
2022/06/24 04:15:14;;;;;;;6.63;6.13;;;19.90;1.00;;;;;;6327193;28;20872;-56
2022/06/24 04:18:18;;;;;;;6.00;5.60;;;19.90;1.00;;;;;;6327128;27;20229;-56
2022/06/24 04:21:22;;;;;;;6.07;5.47;;;19.90;1.00;;;;;;6318959;28;20377;-55
2022/06/24 04:24:27;;;;;;;5.93;5.40;;;20.00;1.00;;;;;;6328751;28;20232;-56
2022/06/24 04:27:31;;;;;;;5.90;5.50;;;20.00;1.00;;;;;;6326018;28;20675;-57
2022/06/24 04:30:36;;;;;;;6.03;5.37;;;20.00;1.00;;;;;;6330360;27;20501;-56
2022/06/24 04:33:39;;;;;;;6.10;5.70;;;20.00;1.00;;;;;;6325253;27;20943;-55
2022/06/24 04:36:42;;;;;;;7.23;5.97;;;20.10;1.00;;;;;;6330519;27;20327;-56
2022/06/24 04:39:44;;;;;;;5.63;5.40;;;20.10;1.00;;;;;;6323906;28;20768;-57
2022/06/24 04:42:55;;;;;;;6.20;5.70;;;20.20;1.00;;;;;;6325839;28;20264;-56
2022/06/24 04:45:58;;;;;;;6.10;5.50;;;20.30;1.00;;;;;;6317515;28;20239;-55
2022/06/24 04:49:01;;;;;;;7.03;5.73;;;20.40;1.00;;;;;;6330319;27;20229;-55
2022/06/24 04:52:05;;;;;;;6.57;5.17;;;20.50;1.00;;;;;;6322524;27;20287;-55
2022/06/24 04:55:09;;;;;;;5.90;5.47;;;20.60;1.00;;;;;;6325683;28;20528;-54
2022/06/24 04:58:13;;;;;;;5.93;5.43;;;20.70;1.00;;;;;;6328500;28;20238;-57
2022/06/24 05:01:17;;;;;;;6.30;5.70;;;20.90;1.00;;;;;;6330471;28;20234;-55
2022/06/24 05:04:19;;;;;;;7.23;5.67;;;21.20;1.00;;;;;;6326920;28;20291;-55
2022/06/24 05:07:23;;;;;;;5.40;5.10;;;21.50;1.00;;;;;;6321363;28;20643;-56
2022/06/24 05:10:26;;;;;;;4.80;4.40;;;21.70;1.00;;;;;;6320535;28;20227;-54
2022/06/24 05:13:31;;;;;;;5.07;4.80;;;22.10;1.00;;;;;;6343979;28;20845;-53
2022/06/24 05:16:34;;;;;;;5.40;5.00;;;22.50;1.00;;;;;;6317766;28;20237;-55
2022/06/24 05:19:42;;;;;;;6.07;5.50;;;22.80;1.00;;;;;;6333918;28;20367;-55
2022/06/24 05:22:44;;;;;;;6.00;5.53;;;23.10;1.00;;;;;;6333311;28;20239;-56
2022/06/24 05:25:49;;;;;;;5.67;4.90;;;23.40;1.00;;;;;;6331237;28;20792;-56
2022/06/24 05:28:53;;;;;;;4.93;4.73;;;23.70;1.00;;;;;;6339760;28;20774;-56
2022/06/24 05:31:56;;;;;;;5.00;4.80;;;24.00;1.00;;;;;;6322161;28;20470;-56
2022/06/24 05:34:59;;;;;;;4.80;4.60;;;24.30;1.00;;;;;;6319106;28;20265;-55
2022/06/24 05:38:02;;;;;;;5.70;5.20;;;24.50;1.00;;;;;;6326195;28;20236;-56
2022/06/24 05:41:05;;;;;;;6.57;4.47;;;24.70;1.00;;;;;;6336909;28;20462;-54
2022/06/24 05:44:10;;;;;;;7.50;5.23;;;25.00;1.00;;;;;;6335916;28;20280;-54
2022/06/24 05:47:13;;;;;;;4.90;4.60;;;25.10;1.00;;;;;;6328998;28;20697;-54
2022/06/24 05:50:16;;;;;;;12.00;4.87;;;25.30;1.00;;;;;;6328250;28;20539;-54
2022/06/24 05:56:41;;;;;;;4.67;4.37;;;25.80;1.00;;;;;;6327426;28;20242;-54
2022/06/24 05:59:50;;;;;;;4.67;4.30;;;25.90;1.00;;;;;;6319254;28;20767;-55
2022/06/24 06:02:53;;;;;;;4.53;4.33;;;26.30;1.00;;;;;;6333236;28;20261;-55
2022/06/24 06:05:56;;;;;;;4.90;4.40;;;26.50;1.00;;;;;;6331023;28;20365;-54
2022/06/24 06:08:59;;;;;;;6.53;4.43;;;26.60;1.00;;;;;;6326028;28;20716;-55
2022/06/24 06:12:04;;;;;;;5.03;4.50;;;26.70;1.00;;;;;;6319316;28;20633;-55
2022/06/24 06:15:10;;;;;;;4.23;3.93;;;26.70;1.00;;;;;;6316251;28;20424;-55
2022/06/24 06:18:13;;;;;;;4.33;4.03;;;26.90;1.00;;;;;;6319684;28;20252;-53
2022/06/24 06:21:17;;;;;;;4.90;3.83;;;27.00;1.00;;;;;;6335292;28;20411;-54
2022/06/24 06:24:20;;;;;;;4.60;4.33;;;27.40;1.00;;;;;;6328520;28;20285;-55
2022/06/24 06:27:23;;;;;;;5.47;4.40;;;27.70;1.00;;;;;;6321355;27;20240;-55
2022/06/24 06:30:42;;;;;;;4.97;4.60;;;28.00;1.00;;;;;;6336607;27;20411;-55
2022/06/24 06:33:45;;;;;;;4.70;4.27;;;28.30;1.00;;;;;;6333951;27;20247;-55
2022/06/24 06:36:48;;;;;;;4.20;4.00;;;28.50;1.00;;;;;;6322805;27;20264;-57
2022/06/24 06:39:51;;;;;;;6.57;4.20;;;28.40;1.00;;;;;;6340487;27;20323;-55
2022/06/24 06:42:55;;;;;;;4.88;4.35;;;28.70;1.00;;;;;;6323039;28;20381;-55
2022/06/24 06:45:59;;;;;;;3.80;3.50;;;28.90;1.00;;;;;;6327344;28;20401;-55
2022/06/24 06:49:02;;;;;;;5.60;3.63;;;28.80;1.00;;;;;;6329911;28;20267;-54
2022/06/24 06:52:06;;;;;;;4.43;4.15;;;28.90;1.00;;;;;;6326803;27;20524;-56
2022/06/24 06:55:09;;;;;;;4.13;3.83;;;29.10;1.00;;;;;;6333377;28;20247;-54
2022/06/24 06:58:12;;;;;;;3.45;3.30;;;29.10;1.00;;;;;;6333064;28;20228;-54
2022/06/24 07:01:16;;;;;;;4.10;3.80;;;29.20;1.00;;;;;;6334094;28;20235;-55
2022/06/24 07:04:19;;;;;;;4.03;3.72;;;29.10;1.00;;;;;;6338448;27;20275;-54
2022/06/24 07:07:22;;;;;;;4.03;3.80;;;29.00;1.00;;;;;;6335398;27;20320;-55
2022/06/24 07:10:25;;;;;;;4.30;4.00;;;29.10;1.00;;;;;;6327666;27;20734;-54
2022/06/24 07:13:28;;;;;;;10.07;4.57;;;29.10;1.00;;;;;;6335845;27;20249;-54
2022/06/24 07:16:33;;;;;;;4.30;3.92;;;29.00;1.00;;;;;;6334631;27;20259;-53
2022/06/24 07:19:37;;;;;;;4.43;3.92;;;29.20;1.00;;;;;;6333492;27;20257;-56
2022/06/24 07:22:40;;;;;;;4.53;4.00;;;29.10;1.00;;;;;;6327341;28;21043;-53
2022/06/24 07:25:43;;;;;;;4.18;3.78;;;29.10;1.00;;;;;;6333436;28;20265;-55
2022/06/24 07:28:45;;;;;;;3.90;3.63;;;29.30;1.00;;;;;;6326305;27;20593;-54
2022/06/24 07:31:50;;;;;;;3.92;3.78;;;29.40;1.00;;;;;;6335628;27;20715;-54
2022/06/24 07:34:59;;;;;;;4.10;3.80;;;29.30;1.00;;;;;;6326606;27;20241;-54
2022/06/24 07:38:02;;;;;;;4.00;3.70;;;29.40;1.00;;;;;;6338675;27;20300;-54
2022/06/24 07:41:05;;;;;;;4.55;3.70;;;29.50;1.00;;;;;;6331468;28;20967;-53
2022/06/24 07:44:08;;;;;;;4.18;3.97;;;29.40;1.00;;;;;;6325323;28;20228;-55
2022/06/24 07:47:12;;;;;;;3.83;3.72;;;29.40;1.00;;;;;;6329283;27;20231;-54
2022/06/24 07:50:15;;;;;;;3.33;3.22;;;29.40;1.00;;;;;;6336780;27;20310;-55
2022/06/24 07:53:18;;;;;;;4.45;4.13;;;29.50;1.00;;;;;;6337298;27;20236;-54
2022/06/24 07:59:45;;;;;;;4.47;4.05;;;29.60;1.00;;;;;;6335011;27;20508;-55
2022/06/24 08:02:50;;;;;;;4.25;3.90;;;29.70;1.00;;;;;;6333157;27;20468;-54
2022/06/24 08:05:53;;;;;;;4.00;3.30;;;29.70;1.00;;;;;;6336339;27;20481;-54
2022/06/24 08:08:56;;;;;;;2.97;2.97;;;29.60;1.00;;;;;;6326984;28;20246;-55
2022/06/24 08:12:00;;;;;;;3.72;3.55;;;29.70;1.00;;;;;;6329214;27;20240;-54
2022/06/24 08:15:03;;;;;;;3.53;3.33;;;29.70;1.00;;;;;;6329258;27;20316;-55
2022/06/24 08:18:08;;;;;;;3.58;3.30;;;29.60;1.00;;;;;;6343663;27;20763;-56
2022/06/24 08:21:10;;;;;;;5.95;3.75;;;29.50;1.00;;;;;;6338013;27;20228;-55
2022/06/24 08:24:14;;;;;;;4.10;3.90;;;29.60;1.00;;;;;;6308693;28;20310;-51
2022/06/24 08:27:17;;;;;;;3.95;3.75;;;29.60;1.00;;;;;;6332314;28;20311;-55
2022/06/24 08:30:29;;;;;;;4.85;4.07;;;29.60;1.00;;;;;;6327398;28;20331;-55
2022/06/24 08:33:33;;;;;;;4.15;3.70;;;29.50;1.00;;;;;;6334778;27;20370;-55
2022/06/24 08:36:37;;;;;;;3.63;3.42;;;29.50;1.00;;;;;;6331910;28;20253;-54
2022/06/24 08:39:40;;;;;;;4.28;3.88;;;29.70;1.00;;;;;;6326230;27;20486;-55
2022/06/24 08:42:45;;;;;;;3.70;3.60;;;29.80;1.00;;;;;;6327803;28;20685;-54
2022/06/24 08:45:48;;;;;;;4.10;3.30;;;29.80;1.00;;;;;;6325148;28;20235;-53
2022/06/24 08:48:58;;;;;;;4.07;3.70;;;29.90;1.00;;;;;;6329631;28;20232;-53
2022/06/24 08:52:09;;;;;;;3.58;3.35;;;29.70;1.00;;;;;;6325641;28;20393;-54
2022/06/24 08:55:17;;;;;;;3.85;3.50;;;29.80;1.00;;;;;;6322214;28;20228;-55
2022/06/24 08:58:20;;;;;;;3.83;3.58;;;29.90;1.00;;;;;;6324617;28;20319;-54
2022/06/24 09:01:29;;;;;;;3.90;3.72;;;30.00;1.00;;;;;;6330195;28;20289;-54
2022/06/24 09:04:36;;;;;;;3.50;3.30;;;30.10;1.00;;;;;;6327077;28;20235;-55
2022/06/24 09:07:40;;;;;;;3.97;3.67;;;30.10;1.00;;;;;;6333261;27;20971;-54
2022/06/24 09:10:44;;;;;;;4.47;3.42;;;30.30;1.00;;;;;;6329545;28;20243;-54
2022/06/24 09:14:09;;;;;;;5.15;3.70;;;30.40;1.00;;;;;;6325399;28;20240;-56
2022/06/24 09:17:15;;;;;;;3.35;3.15;;;30.50;1.00;;;;;;6330078;28;20492;-56
2022/06/24 09:20:21;;;;;;;3.40;3.30;;;30.60;1.00;;;;;;6324623;28;20716;-55
2022/06/24 09:23:52;;;;;;;3.20;3.20;;;30.60;1.00;;;;;;6330234;28;20622;-54
2022/06/24 09:27:00;;;;;;;3.80;3.70;;;30.80;1.00;;;;;;6326209;28;20311;-58
2022/06/24 09:30:04;;;;;;;4.53;3.50;;;30.80;1.00;;;;;;6329438;28;20714;-55
2022/06/24 09:33:15;;;;;;;4.00;3.70;;;30.80;1.00;;;;;;6329529;28;20264;-55
2022/06/24 09:36:37;;;;;;;3.63;3.53;;;30.90;1.00;;;;;;6327674;28;20326;-59
2022/06/24 09:39:45;;;;;;;3.40;3.30;;;30.90;1.00;;;;;;6327433;28;20606;-55
2022/06/24 09:42:55;;;;;;;3.22;3.13;;;31.00;1.00;;;;;;6328398;28;20283;-55
2022/06/24 09:46:01;;;;;;;3.20;3.10;;;31.00;1.00;;;;;;6330910;28;20262;-54
2022/06/24 09:49:06;;;;;;;3.65;3.45;;;30.90;1.00;;;;;;6325351;28;20623;-55
2022/06/24 09:52:12;;;;;;;3.55;3.25;;;30.90;1.00;;;;;;6326840;28;20251;-55
2022/06/24 09:55:17;;;;;;;3.42;3.20;;;30.80;1.00;;;;;;6331490;28;20259;-55
2022/06/24 09:58:21;;;;;;;3.05;2.85;;;30.80;1.00;;;;;;6332390;27;20554;-54
2022/06/24 10:01:23;;;;;;;3.42;3.15;;;30.70;1.00;;;;;;6334660;27;20260;-53
2022/06/24 10:04:28;;;;;;;2.88;2.72;;;30.60;1.00;;;;;;6331460;27;20329;-55
2022/06/24 10:07:35;;;;;;;12.25;11.05;;;30.70;1.00;;;;;;6332034;28;20239;-53
2022/06/24 10:10:45;;;;;;;4.70;4.30;;;30.60;1.00;;;;;;6340696;27;20356;-53
2022/06/24 10:13:48;;;;;;;3.38;3.17;;;30.80;1.00;;;;;;6330308;28;20240;-54
2022/06/24 10:16:51;;;;;;;3.25;3.15;;;30.80;1.00;;;;;;6331657;28;20248;-53
2022/06/24 10:19:56;;;;;;;5.53;5.13;;;30.90;1.00;;;;;;6335375;28;20260;-55
2022/06/24 10:23:00;;;;;;;3.53;3.25;;;30.90;1.00;;;;;;6328467;28;20240;-54
2022/06/24 10:26:11;;;;;;;3.20;3.00;;;30.90;1.00;;;;;;6334078;28;20315;-54
2022/06/24 10:29:30;;;;;;;5.05;3.20;;;30.80;1.00;;;;;;6323638;28;20722;-55
2022/06/24 10:32:33;;;;;;;3.72;3.03;;;30.80;1.00;;;;;;6328554;27;20856;-54
2022/06/24 10:36:02;;;;;;;2.90;2.72;;;30.90;1.00;;;;;;6330619;28;20280;-54
2022/06/24 10:39:11;;;;;;;3.13;2.92;;;30.90;1.00;;;;;;6327850;28;20832;-54
2022/06/24 10:42:15;;;;;;;3.50;3.28;;;30.90;1.00;;;;;;6329325;28;20254;-54
2022/06/24 10:45:34;;;;;;;3.70;3.50;;;30.90;1.00;;;;;;6333518;28;20311;-59
2022/06/24 10:48:58;;;;;;;6.68;3.03;;;30.80;1.00;;;;;;6323032;28;20805;-54
2022/06/24 10:52:33;;;;;;;3.22;3.10;;;30.70;1.00;;;;;;6329030;28;20652;-53
2022/06/24 10:55:39;;;;;;;5.57;3.47;;;30.80;1.00;;;;;;6329181;28;20305;-54
2022/06/24 10:58:44;;;;;;;3.42;3.20;;;30.80;1.00;;;;;;6327630;28;20328;-53
2022/06/24 11:01:49;;;;;;;3.03;2.92;;;30.90;1.00;;;;;;6331481;27;20236;-53
2022/06/24 11:04:52;;;;;;;4.28;3.75;;;30.90;1.00;;;;;;6334206;27;20438;-54
2022/06/24 11:07:57;;;;;;;3.00;2.85;;;30.90;1.00;;;;;;6324096;28;20377;-56
2022/06/24 11:11:01;;;;;;;3.90;3.58;;;31.00;1.00;;;;;;6332248;27;20276;-53
2022/06/24 11:14:28;;;;;;;6.60;4.47;;;31.00;1.00;;;;;;6327979;28;20557;-54
2022/06/24 11:17:31;;;;;;;3.35;3.15;;;31.00;1.00;;;;;;6327035;28;20362;-53
2022/06/24 11:20:37;;;;;;;4.68;4.07;;;31.10;1.00;;;;;;6333811;28;20301;-53
2022/06/24 11:23:40;;;;;;;4.13;3.92;;;31.10;1.00;;;;;;6331332;28;20692;-54
2022/06/24 11:27:03;;;;;;;3.90;3.60;;;31.10;1.00;;;;;;6328805;28;20260;-54
2022/06/24 11:30:07;;;;;;;4.38;3.97;;;31.10;1.00;;;;;;6331048;28;20288;-55
2022/06/24 11:33:15;;;;;;;3.42;3.33;;;31.10;1.00;;;;;;6333065;28;20224;-54
2022/06/24 11:36:21;;;;;;;5.63;3.83;;;31.00;1.00;;;;;;6332983;28;20669;-55
2022/06/24 11:39:24;;;;;;;4.40;3.90;;;31.00;1.00;;;;;;6326432;27;20280;-54
2022/06/24 11:42:29;;;;;;;3.72;3.42;;;31.00;1.00;;;;;;6333687;27;20708;-53
2022/06/24 11:45:34;;;;;;;4.15;3.95;;;30.90;1.00;;;;;;6332583;28;20330;-53
2022/06/24 11:48:37;;;;;;;5.95;3.53;;;31.00;1.00;;;;;;6331611;28;20240;-54
2022/06/24 11:51:41;;;;;;;3.45;3.25;;;31.10;1.00;;;;;;6322197;28;20500;-55
2022/06/24 11:54:44;;;;;;;4.25;3.90;;;31.20;1.00;;;;;;6327597;28;20323;-55
2022/06/24 11:57:53;;;;;;;3.03;2.92;;;31.40;1.00;;;;;;6329264;28;20326;-54
2022/06/24 12:00:58;;;;;;;8.05;3.63;;;31.50;1.00;;;;;;6330403;28;20608;-54
2022/06/24 12:04:02;;;;;;;3.67;3.40;;;31.70;1.00;;;;;;6329733;27;20242;-53
2022/06/24 12:07:07;;;;;;;5.78;3.33;;;31.60;1.00;;;;;;6328263;28;20239;-54
2022/06/24 12:10:10;;;;;;;7.15;3.22;;;31.70;1.00;;;;;;6329426;27;20240;-53
2022/06/24 12:13:25;;;;;;;3.22;2.92;;;31.90;1.00;;;;;;6336001;27;20854;-53
2022/06/24 12:16:45;;;;;;;6.05;2.92;;;31.90;1.00;;;;;;6333027;28;20271;-53
2022/06/24 12:20:00;;;;;;;3.22;3.03;;;31.90;1.00;;;;;;6325658;28;20327;-55
2022/06/24 12:23:16;;;;;;;5.80;3.10;;;32.10;1.00;;;;;;6324019;28;21005;-54
2022/06/24 12:26:21;;;;;;;3.75;3.50;;;32.20;1.00;;;;;;6327729;28;20228;-52
2022/06/24 12:29:30;;;;;;;4.93;3.20;;;32.20;1.00;;;;;;6330361;28;20228;-52
2022/06/24 12:32:48;;;;;;;4.97;3.20;;;32.30;1.00;;;;;;6329421;27;20269;-55
2022/06/24 12:36:12;;;;;;;3.05;2.85;;;32.40;1.00;;;;;;6323589;27;20708;-53
2022/06/24 12:39:15;;;;;;;2.95;2.88;;;32.50;1.00;;;;;;6323868;28;20232;-51
2022/06/24 12:42:19;;;;;;;3.20;3.03;;;32.50;1.00;;;;;;6330257;27;20227;-53
2022/06/24 12:45:25;;;;;;;3.40;2.63;;;32.70;1.00;;;;;;6331548;28;20390;-53
2022/06/24 12:51:53;;;;;;;2.58;2.47;;;32.90;1.00;;;;;;6329161;28;20232;-54
2022/06/24 12:54:56;;;;;;;5.60;2.95;;;32.70;1.00;;;;;;6331690;28;20858;-52
2022/06/24 12:58:02;;;;;;;5.07;2.47;;;32.90;1.00;;;;;;6327954;28;20232;-52
2022/06/24 13:01:16;;;;;;;4.15;2.40;;;32.90;1.00;;;;;;6326229;28;20232;-54
2022/06/24 13:04:19;;;;;;;6.32;2.72;;;32.80;1.00;;;;;;6321135;28;20377;-54
2022/06/24 13:07:22;;;;;;;2.63;2.50;;;32.80;1.00;;;;;;6325662;28;20300;-54
2022/06/24 13:10:25;;;;;;;6.72;2.65;;;32.80;1.00;;;;;;6324057;28;20410;-54
2022/06/24 13:13:28;;;;;;;5.43;2.85;;;32.60;1.00;;;;;;6330451;28;20458;-54
2022/06/24 13:16:33;;;;;;;7.10;2.50;;;32.80;1.00;;;;;;6331456;28;20357;-54
2022/06/24 13:19:36;;;;;;;2.80;2.55;;;32.90;1.00;;;;;;6323985;28;20638;-54
2022/06/24 13:22:39;;;;;;;2.60;2.40;;;33.10;1.00;;;;;;6327622;28;20232;-54
2022/06/24 13:25:42;;;;;;;2.53;2.42;;;33.20;1.00;;;;;;6329770;28;20228;-54
2022/06/24 13:28:48;;;;;;;6.43;2.70;;;33.40;1.00;;;;;;6318586;28;20255;-54
2022/06/24 13:31:52;;;;;;;6.90;2.78;;;33.40;1.00;;;;;;6320041;28;20566;-55
2022/06/24 13:35:03;;;;;;;5.07;2.30;;;33.30;1.00;;;;;;6333794;28;20326;-53
2022/06/24 13:38:07;;;;;;;2.50;2.40;;;33.10;1.00;;;;;;6327963;28;20490;-55
2022/06/24 13:41:10;;;;;;;2.47;2.35;;;33.10;1.00;;;;;;6330126;28;20260;-53
2022/06/24 13:44:13;;;;;;;3.08;2.80;;;33.10;1.00;;;;;;6335529;28;20277;-59
2022/06/24 13:47:18;;;;;;;2.38;2.30;;;32.90;1.00;;;;;;6330696;28;20369;-55
2022/06/24 13:50:20;;;;;;;3.05;2.90;;;32.80;1.00;;;;;;6334678;28;20315;-54
2022/06/24 13:53:23;;;;;;;2.90;2.70;;;32.80;1.00;;;;;;6332987;28;20238;-54
2022/06/24 13:56:26;;;;;;;6.25;2.80;;;33.00;1.00;;;;;;6333452;28;20270;-54
2022/06/24 13:59:29;;;;;;;4.85;2.75;;;33.20;1.00;;;;;;6334259;28;20311;-54
2022/06/24 14:02:34;;;;;;;2.60;2.50;;;33.20;1.00;;;;;;6334478;28;20235;-54
2022/06/24 14:05:37;;;;;;;5.93;2.70;;;33.10;1.00;;;;;;6329752;28;20336;-54
2022/06/24 14:08:39;;;;;;;5.50;2.80;;;33.00;1.00;;;;;;6324670;28;20274;-52
2022/06/24 14:11:42;;;;;;;5.00;2.78;;;33.10;1.00;;;;;;6334899;27;20320;-53
2022/06/24 14:14:45;;;;;;;5.55;3.33;;;33.00;1.00;;;;;;6336175;27;21099;-53
2022/06/24 14:17:50;;;;;;;6.65;2.67;;;32.80;1.00;;;;;;6328277;28;20233;-53
2022/06/24 14:20:53;;;;;;;3.20;2.75;;;32.70;1.00;;;;;;6325218;28;20236;-53
2022/06/24 14:27:18;;;;;;;2.75;2.60;;;32.30;1.00;;;;;;6331830;28;20320;-52
2022/06/24 14:30:21;;;;;;;5.85;2.78;;;32.50;1.00;;;;;;6320438;28;20508;-52
2022/06/24 14:33:25;;;;;;;2.50;2.30;;;32.60;1.00;;;;;;6332487;28;20341;-52
2022/06/24 14:36:28;;;;;;;4.97;2.40;;;32.90;1.00;;;;;;6333774;28;20369;-54
2022/06/24 14:42:51;;;;;;;2.88;2.70;;;33.10;1.00;;;;;;6333720;27;20719;-52
2022/06/24 14:45:54;;;;;;;2.83;2.60;;;33.30;1.00;;;;;;6335651;27;20319;-53
2022/06/24 14:49:06;;;;;;;4.25;2.10;;;33.40;1.00;;;;;;6332058;27;20289;-54
2022/06/24 14:52:29;;;;;;;7.97;2.40;;;33.40;1.00;;;;;;6331754;28;20224;-54
2022/06/24 14:55:32;;;;;;;7.22;2.10;;;33.20;1.00;;;;;;6333800;28;20359;-53
2022/06/24 14:58:35;;;;;;;3.63;2.03;;;32.80;1.00;;;;;;6332082;27;20284;-53
2022/06/24 15:01:38;;;;;;;2.63;2.53;;;32.60;1.00;;;;;;6334082;28;20257;-53
2022/06/24 15:04:42;;;;;;;6.00;2.22;;;32.50;1.00;;;;;;6332962;28;21089;-53
2022/06/24 15:07:46;;;;;;;3.00;2.80;;;32.30;1.00;;;;;;6327148;28;20391;-53
2022/06/24 15:10:49;;;;;;;3.92;2.72;;;32.10;1.00;;;;;;6334499;27;20792;-53
2022/06/24 15:13:52;;;;;;;2.85;2.75;;;31.80;1.00;;;;;;6325169;28;20243;-53
2022/06/24 15:16:56;;;;;;;4.57;3.55;;;31.60;1.00;;;;;;6322054;28;20734;-53
2022/06/24 15:20:00;;;;;;;3.58;3.13;;;31.40;1.00;;;;;;6329320;28;20342;-53
2022/06/24 15:23:03;;;;;;;8.52;3.55;;;31.30;1.00;;;;;;6331146;28;20309;-57
2022/06/24 15:26:06;;;;;;;3.67;3.10;;;31.10;1.00;;;;;;6333144;28;20315;-54
2022/06/24 15:29:14;;;;;;;3.47;3.28;;;30.90;1.00;;;;;;6322824;28;20611;-52
2022/06/24 15:32:18;;;;;;;3.45;3.25;;;30.80;1.00;;;;;;6321675;28;20273;-54
2022/06/24 15:35:22;;;;;;;3.45;3.20;;;30.80;1.00;;;;;;6337785;27;20843;-52
2022/06/24 15:38:25;;;;;;;4.65;4.35;;;30.70;1.00;;;;;;6324635;28;20228;-53
2022/06/24 15:41:29;;;;;;;7.15;5.60;;;30.50;1.00;;;;;;6328839;28;20236;-54
2022/06/24 15:44:32;;;;;;;7.65;5.88;;;30.40;1.00;;;;;;6332065;27;20232;-53
2022/06/24 15:47:35;;;;;;;5.88;5.38;;;30.20;1.00;;;;;;6328440;28;20247;-55
2022/06/24 15:50:40;;;;;;;6.70;6.00;;;30.10;1.00;;;;;;6321970;28;20304;-54
2022/06/24 15:53:44;;;;;;;8.77;6.65;;;30.00;1.00;;;;;;6324421;28;20302;-54
2022/06/24 15:56:47;;;;;;;6.15;5.80;;;29.90;1.00;;;;;;6319385;28;20263;-53
2022/06/24 15:59:50;;;;;;;10.15;5.85;;;29.80;1.00;;;;;;6328490;28;20613;-54
2022/06/24 16:02:54;;;;;;;9.10;6.33;;;29.70;1.00;;;;;;6328585;28;20231;-53
2022/06/24 16:06:00;;;;;;;6.27;5.87;;;29.50;1.00;;;;;;6324741;28;20359;-53
2022/06/24 16:09:03;;;;;;;6.63;6.30;;;29.40;1.00;;;;;;6324664;28;20331;-53
2022/06/24 16:15:27;;;;;;;6.03;5.53;;;29.20;1.00;;;;;;6328491;28;20311;-54
2022/06/24 16:18:30;;;;;;;6.47;5.87;;;29.20;1.00;;;;;;6313298;28;20365;-54
2022/06/24 16:21:35;;;;;;;8.27;5.13;;;29.00;1.00;;;;;;6333549;28;20247;-54
2022/06/24 16:31:17;;;;;;;8.27;5.07;;;28.80;1.00;;;;;;6327403;28;20612;-54
2022/06/24 16:34:20;;;;;;;6.83;6.13;;;28.80;1.00;;;;;;6331329;28;20242;-52
2022/06/24 16:37:24;;;;;;;8.20;6.70;;;28.70;1.00;;;;;;6324000;28;20269;-54
2022/06/24 16:40:29;;;;;;;6.37;6.07;;;28.50;1.00;;;;;;6321683;28;20416;-53
2022/06/24 16:43:32;;;;;;;9.17;6.13;;;28.30;1.00;;;;;;6330582;28;20285;-54
2022/06/24 16:46:35;;;;;;;9.50;6.50;;;28.20;1.00;;;;;;6331330;28;20399;-57
2022/06/24 16:49:38;;;;;;;6.90;6.10;;;28.10;1.00;;;;;;6328780;28;20447;-55